sensor_id;sensor_type;location;lat;lon;timestamp;P1;durP1;ratioP1;P2;durP2;ratioP2
291;SDS011;23311;48.776;9.162;2022-10-31T00:00:46;8.23;;;6.67;;
291;SDS011;23311;48.776;9.162;2022-10-31T00:03:16;7.23;;;6.40;;
291;SDS011;23311;48.776;9.162;2022-10-31T00:05:45;7.33;;;6.20;;
291;SDS011;23311;48.776;9.162;2022-10-31T00:08:15;7.27;;;5.80;;
291;SDS011;23311;48.776;9.162;2022-10-31T00:10:44;9.10;;;6.43;;
291;SDS011;23311;48.776;9.162;2022-10-31T00:13:13;9.50;;;6.67;;
291;SDS011;23311;48.776;9.162;2022-10-31T00:15:41;11.03;;;6.03;;
291;SDS011;23311;48.776;9.162;2022-10-31T00:18:10;10.40;;;7.13;;
291;SDS011;23311;48.776;9.162;2022-10-31T00:20:39;7.90;;;6.83;;
291;SDS011;23311;48.776;9.162;2022-10-31T00:23:08;7.37;;;6.63;;
291;SDS011;23311;48.776;9.162;2022-10-31T00:25:38;11.20;;;6.90;;
291;SDS011;23311;48.776;9.162;2022-10-31T00:28:07;8.07;;;6.70;;
291;SDS011;23311;48.776;9.162;2022-10-31T00:30:38;14.90;;;6.63;;
291;SDS011;23311;48.776;9.162;2022-10-31T00:33:06;9.73;;;6.17;;
291;SDS011;23311;48.776;9.162;2022-10-31T00:35:34;11.80;;;6.00;;
291;SDS011;23311;48.776;9.162;2022-10-31T00:38:03;6.90;;;5.50;;
291;SDS011;23311;48.776;9.162;2022-10-31T00:40:32;7.30;;;5.50;;
291;SDS011;23311;48.776;9.162;2022-10-31T00:43:00;8.87;;;6.00;;
291;SDS011;23311;48.776;9.162;2022-10-31T00:45:29;7.87;;;6.60;;
291;SDS011;23311;48.776;9.162;2022-10-31T00:47:58;8.73;;;7.13;;
291;SDS011;23311;48.776;9.162;2022-10-31T00:50:26;12.67;;;7.10;;
291;SDS011;23311;48.776;9.162;2022-10-31T00:52:54;8.10;;;6.50;;
291;SDS011;23311;48.776;9.162;2022-10-31T00:55:24;10.13;;;6.00;;
291;SDS011;23311;48.776;9.162;2022-10-31T00:57:52;6.40;;;5.53;;
291;SDS011;23311;48.776;9.162;2022-10-31T01:00:20;8.60;;;6.23;;
291;SDS011;23311;48.776;9.162;2022-10-31T01:02:49;12.93;;;6.50;;
291;SDS011;23311;48.776;9.162;2022-10-31T01:05:17;7.80;;;6.47;;
291;SDS011;23311;48.776;9.162;2022-10-31T01:07:45;6.37;;;5.87;;
291;SDS011;23311;48.776;9.162;2022-10-31T01:10:13;7.17;;;6.37;;
291;SDS011;23311;48.776;9.162;2022-10-31T01:12:43;7.60;;;6.10;;
291;SDS011;23311;48.776;9.162;2022-10-31T01:15:13;8.40;;;6.20;;
291;SDS011;23311;48.776;9.162;2022-10-31T01:17:42;7.43;;;5.70;;
291;SDS011;23311;48.776;9.162;2022-10-31T01:20:11;9.13;;;6.13;;
291;SDS011;23311;48.776;9.162;2022-10-31T01:22:41;10.03;;;6.00;;
291;SDS011;23311;48.776;9.162;2022-10-31T01:25:09;7.53;;;6.17;;
291;SDS011;23311;48.776;9.162;2022-10-31T01:27:37;9.00;;;7.20;;
291;SDS011;23311;48.776;9.162;2022-10-31T01:30:07;7.17;;;6.47;;
291;SDS011;23311;48.776;9.162;2022-10-31T01:32:36;8.70;;;5.70;;
291;SDS011;23311;48.776;9.162;2022-10-31T01:35:04;9.17;;;6.30;;
291;SDS011;23311;48.776;9.162;2022-10-31T01:37:33;11.13;;;5.80;;
291;SDS011;23311;48.776;9.162;2022-10-31T01:40:01;7.73;;;6.10;;
291;SDS011;23311;48.776;9.162;2022-10-31T01:42:29;9.20;;;6.20;;
291;SDS011;23311;48.776;9.162;2022-10-31T01:44:58;7.97;;;6.00;;
291;SDS011;23311;48.776;9.162;2022-10-31T01:47:33;7.70;;;6.17;;
291;SDS011;23311;48.776;9.162;2022-10-31T01:50:12;7.53;;;5.27;;
291;SDS011;23311;48.776;9.162;2022-10-31T01:52:43;7.77;;;5.70;;
291;SDS011;23311;48.776;9.162;2022-10-31T01:55:15;8.50;;;6.27;;
291;SDS011;23311;48.776;9.162;2022-10-31T01:57:55;12.33;;;7.40;;
291;SDS011;23311;48.776;9.162;2022-10-31T02:00:27;7.57;;;6.83;;
291;SDS011;23311;48.776;9.162;2022-10-31T02:02:57;9.17;;;5.93;;
291;SDS011;23311;48.776;9.162;2022-10-31T02:05:27;7.37;;;5.70;;
291;SDS011;23311;48.776;9.162;2022-10-31T02:07:57;7.47;;;6.40;;
291;SDS011;23311;48.776;9.162;2022-10-31T02:10:27;6.30;;;5.23;;
291;SDS011;23311;48.776;9.162;2022-10-31T02:12:58;7.33;;;6.33;;
291;SDS011;23311;48.776;9.162;2022-10-31T02:15:29;8.43;;;5.90;;
291;SDS011;23311;48.776;9.162;2022-10-31T02:18:00;12.07;;;6.20;;
291;SDS011;23311;48.776;9.162;2022-10-31T02:20:29;7.63;;;5.77;;
291;SDS011;23311;48.776;9.162;2022-10-31T02:23:06;9.13;;;6.80;;
291;SDS011;23311;48.776;9.162;2022-10-31T02:26:03;7.87;;;5.93;;
291;SDS011;23311;48.776;9.162;2022-10-31T02:28:52;7.33;;;6.17;;
291;SDS011;23311;48.776;9.162;2022-10-31T02:31:39;10.03;;;5.93;;
291;SDS011;23311;48.776;9.162;2022-10-31T02:34:15;9.60;;;6.30;;
291;SDS011;23311;48.776;9.162;2022-10-31T02:36:48;6.57;;;6.17;;
291;SDS011;23311;48.776;9.162;2022-10-31T02:39:22;7.20;;;5.23;;
291;SDS011;23311;48.776;9.162;2022-10-31T02:41:56;9.90;;;5.53;;
291;SDS011;23311;48.776;9.162;2022-10-31T02:44:31;10.13;;;5.80;;
291;SDS011;23311;48.776;9.162;2022-10-31T02:47:06;5.50;;;5.20;;
291;SDS011;23311;48.776;9.162;2022-10-31T02:49:40;6.67;;;5.63;;
291;SDS011;23311;48.776;9.162;2022-10-31T02:52:13;8.13;;;5.60;;
291;SDS011;23311;48.776;9.162;2022-10-31T02:54:45;7.40;;;5.80;;
291;SDS011;23311;48.776;9.162;2022-10-31T02:57:14;8.40;;;5.50;;
291;SDS011;23311;48.776;9.162;2022-10-31T02:59:48;10.33;;;7.53;;
291;SDS011;23311;48.776;9.162;2022-10-31T03:02:24;7.03;;;5.57;;
291;SDS011;23311;48.776;9.162;2022-10-31T03:08:07;7.23;;;5.30;;
291;SDS011;23311;48.776;9.162;2022-10-31T03:10:43;12.70;;;6.00;;
291;SDS011;23311;48.776;9.162;2022-10-31T03:13:17;8.13;;;5.60;;
291;SDS011;23311;48.776;9.162;2022-10-31T03:15:52;8.77;;;6.03;;
291;SDS011;23311;48.776;9.162;2022-10-31T03:18:25;10.43;;;6.00;;
291;SDS011;23311;48.776;9.162;2022-10-31T03:20:58;8.33;;;6.80;;
291;SDS011;23311;48.776;9.162;2022-10-31T03:23:30;9.37;;;5.90;;
291;SDS011;23311;48.776;9.162;2022-10-31T03:26:02;8.20;;;5.80;;
291;SDS011;23311;48.776;9.162;2022-10-31T03:28:34;8.50;;;6.60;;
291;SDS011;23311;48.776;9.162;2022-10-31T03:31:04;12.97;;;6.40;;
291;SDS011;23311;48.776;9.162;2022-10-31T03:33:35;8.43;;;6.07;;
291;SDS011;23311;48.776;9.162;2022-10-31T03:36:06;8.07;;;6.70;;
291;SDS011;23311;48.776;9.162;2022-10-31T03:38:36;7.27;;;6.73;;
291;SDS011;23311;48.776;9.162;2022-10-31T03:41:07;7.97;;;5.20;;
291;SDS011;23311;48.776;9.162;2022-10-31T03:43:42;14.10;;;6.40;;
291;SDS011;23311;48.776;9.162;2022-10-31T03:46:13;9.70;;;6.83;;
291;SDS011;23311;48.776;9.162;2022-10-31T03:48:43;7.60;;;5.87;;
291;SDS011;23311;48.776;9.162;2022-10-31T03:51:12;7.37;;;6.10;;
291;SDS011;23311;48.776;9.162;2022-10-31T03:53:47;10.20;;;5.80;;
291;SDS011;23311;48.776;9.162;2022-10-31T03:56:22;8.93;;;6.80;;
291;SDS011;23311;48.776;9.162;2022-10-31T03:58:58;7.27;;;6.03;;
291;SDS011;23311;48.776;9.162;2022-10-31T04:01:30;8.90;;;5.03;;
291;SDS011;23311;48.776;9.162;2022-10-31T04:04:03;9.17;;;5.67;;
291;SDS011;23311;48.776;9.162;2022-10-31T04:06:32;9.07;;;5.77;;
291;SDS011;23311;48.776;9.162;2022-10-31T04:09:04;8.30;;;6.70;;
291;SDS011;23311;48.776;9.162;2022-10-31T04:11:34;10.53;;;6.63;;
291;SDS011;23311;48.776;9.162;2022-10-31T04:14:05;8.53;;;7.40;;
291;SDS011;23311;48.776;9.162;2022-10-31T04:16:34;9.27;;;6.60;;
291;SDS011;23311;48.776;9.162;2022-10-31T04:19:03;11.93;;;6.33;;
291;SDS011;23311;48.776;9.162;2022-10-31T04:21:31;7.10;;;5.40;;
291;SDS011;23311;48.776;9.162;2022-10-31T04:23:59;8.97;;;6.40;;
291;SDS011;23311;48.776;9.162;2022-10-31T04:26:27;7.67;;;5.87;;
291;SDS011;23311;48.776;9.162;2022-10-31T04:28:55;6.70;;;5.60;;
291;SDS011;23311;48.776;9.162;2022-10-31T04:31:23;6.60;;;5.60;;
291;SDS011;23311;48.776;9.162;2022-10-31T04:33:51;12.00;;;7.27;;
291;SDS011;23311;48.776;9.162;2022-10-31T04:36:21;9.77;;;6.00;;
291;SDS011;23311;48.776;9.162;2022-10-31T04:38:49;7.97;;;4.70;;
291;SDS011;23311;48.776;9.162;2022-10-31T04:41:17;6.40;;;5.17;;
291;SDS011;23311;48.776;9.162;2022-10-31T04:43:45;9.40;;;6.57;;
291;SDS011;23311;48.776;9.162;2022-10-31T04:46:13;8.47;;;5.97;;
291;SDS011;23311;48.776;9.162;2022-10-31T04:48:41;6.67;;;5.37;;
291;SDS011;23311;48.776;9.162;2022-10-31T04:51:09;6.07;;;5.20;;
291;SDS011;23311;48.776;9.162;2022-10-31T04:53:38;10.13;;;6.70;;
291;SDS011;23311;48.776;9.162;2022-10-31T04:56:06;7.10;;;6.00;;
291;SDS011;23311;48.776;9.162;2022-10-31T04:58:34;11.60;;;6.40;;
291;SDS011;23311;48.776;9.162;2022-10-31T05:01:02;7.80;;;5.60;;
291;SDS011;23311;48.776;9.162;2022-10-31T05:03:30;8.77;;;6.43;;
291;SDS011;23311;48.776;9.162;2022-10-31T05:05:58;6.43;;;6.10;;
291;SDS011;23311;48.776;9.162;2022-10-31T05:08:27;7.57;;;7.03;;
291;SDS011;23311;48.776;9.162;2022-10-31T05:10:56;8.17;;;5.80;;
291;SDS011;23311;48.776;9.162;2022-10-31T05:13:30;7.10;;;5.77;;
291;SDS011;23311;48.776;9.162;2022-10-31T05:15:58;7.80;;;4.80;;
291;SDS011;23311;48.776;9.162;2022-10-31T05:18:26;9.17;;;6.90;;
291;SDS011;23311;48.776;9.162;2022-10-31T05:20:54;8.30;;;6.70;;
291;SDS011;23311;48.776;9.162;2022-10-31T05:23:22;7.07;;;6.30;;
291;SDS011;23311;48.776;9.162;2022-10-31T05:25:50;7.17;;;5.87;;
291;SDS011;23311;48.776;9.162;2022-10-31T05:28:19;8.70;;;6.80;;
291;SDS011;23311;48.776;9.162;2022-10-31T05:30:47;9.33;;;6.13;;
291;SDS011;23311;48.776;9.162;2022-10-31T05:33:16;10.67;;;7.53;;
291;SDS011;23311;48.776;9.162;2022-10-31T05:35:44;9.73;;;6.10;;
291;SDS011;23311;48.776;9.162;2022-10-31T05:38:12;8.07;;;6.87;;
291;SDS011;23311;48.776;9.162;2022-10-31T05:40:40;8.77;;;6.23;;
291;SDS011;23311;48.776;9.162;2022-10-31T05:43:08;7.30;;;6.80;;
291;SDS011;23311;48.776;9.162;2022-10-31T05:45:37;7.37;;;6.53;;
291;SDS011;23311;48.776;9.162;2022-10-31T05:48:05;10.83;;;6.40;;
291;SDS011;23311;48.776;9.162;2022-10-31T05:50:33;12.47;;;6.77;;
291;SDS011;23311;48.776;9.162;2022-10-31T05:53:02;7.83;;;6.90;;
291;SDS011;23311;48.776;9.162;2022-10-31T05:55:31;9.30;;;7.10;;
291;SDS011;23311;48.776;9.162;2022-10-31T05:58:00;8.90;;;6.40;;
291;SDS011;23311;48.776;9.162;2022-10-31T06:00:28;11.63;;;6.90;;
291;SDS011;23311;48.776;9.162;2022-10-31T06:02:58;8.83;;;6.63;;
291;SDS011;23311;48.776;9.162;2022-10-31T06:05:27;12.20;;;6.73;;
291;SDS011;23311;48.776;9.162;2022-10-31T06:07:56;9.17;;;6.53;;
291;SDS011;23311;48.776;9.162;2022-10-31T06:10:25;7.93;;;6.20;;
291;SDS011;23311;48.776;9.162;2022-10-31T06:12:54;7.37;;;6.70;;
291;SDS011;23311;48.776;9.162;2022-10-31T06:15:22;11.60;;;7.13;;
291;SDS011;23311;48.776;9.162;2022-10-31T06:17:58;8.93;;;6.73;;
291;SDS011;23311;48.776;9.162;2022-10-31T06:20:28;9.13;;;6.60;;
291;SDS011;23311;48.776;9.162;2022-10-31T06:22:56;8.10;;;6.77;;
291;SDS011;23311;48.776;9.162;2022-10-31T06:25:25;7.90;;;6.60;;
291;SDS011;23311;48.776;9.162;2022-10-31T06:27:54;10.13;;;7.13;;
291;SDS011;23311;48.776;9.162;2022-10-31T06:30:23;9.60;;;6.13;;
291;SDS011;23311;48.776;9.162;2022-10-31T06:32:51;9.40;;;6.23;;
291;SDS011;23311;48.776;9.162;2022-10-31T06:35:20;10.20;;;6.80;;
291;SDS011;23311;48.776;9.162;2022-10-31T06:37:52;8.70;;;5.70;;
291;SDS011;23311;48.776;9.162;2022-10-31T06:40:20;13.20;;;7.07;;
291;SDS011;23311;48.776;9.162;2022-10-31T06:42:55;8.17;;;6.50;;
291;SDS011;23311;48.776;9.162;2022-10-31T06:45:23;9.03;;;6.30;;
291;SDS011;23311;48.776;9.162;2022-10-31T06:47:51;9.30;;;5.97;;
291;SDS011;23311;48.776;9.162;2022-10-31T06:50:41;9.90;;;6.33;;
291;SDS011;23311;48.776;9.162;2022-10-31T06:53:09;6.23;;;5.70;;
291;SDS011;23311;48.776;9.162;2022-10-31T06:55:38;9.13;;;7.00;;
291;SDS011;23311;48.776;9.162;2022-10-31T06:58:06;9.37;;;6.27;;
291;SDS011;23311;48.776;9.162;2022-10-31T07:00:36;8.20;;;6.40;;
291;SDS011;23311;48.776;9.162;2022-10-31T07:03:05;9.83;;;6.20;;
291;SDS011;23311;48.776;9.162;2022-10-31T07:05:34;9.00;;;6.23;;
291;SDS011;23311;48.776;9.162;2022-10-31T07:08:04;7.30;;;5.90;;
291;SDS011;23311;48.776;9.162;2022-10-31T07:10:35;9.30;;;7.30;;
291;SDS011;23311;48.776;9.162;2022-10-31T07:13:08;9.20;;;7.50;;
291;SDS011;23311;48.776;9.162;2022-10-31T07:15:38;9.70;;;6.53;;
291;SDS011;23311;48.776;9.162;2022-10-31T07:18:09;8.33;;;6.30;;
291;SDS011;23311;48.776;9.162;2022-10-31T07:20:38;8.40;;;6.73;;
291;SDS011;23311;48.776;9.162;2022-10-31T07:23:08;8.60;;;7.40;;
291;SDS011;23311;48.776;9.162;2022-10-31T07:25:37;8.60;;;7.10;;
291;SDS011;23311;48.776;9.162;2022-10-31T07:28:05;9.73;;;7.03;;
291;SDS011;23311;48.776;9.162;2022-10-31T07:30:34;11.20;;;6.70;;
291;SDS011;23311;48.776;9.162;2022-10-31T07:33:02;12.30;;;6.97;;
291;SDS011;23311;48.776;9.162;2022-10-31T07:35:30;10.23;;;7.10;;
291;SDS011;23311;48.776;9.162;2022-10-31T07:38:06;11.60;;;6.10;;
291;SDS011;23311;48.776;9.162;2022-10-31T07:40:36;7.77;;;6.23;;
291;SDS011;23311;48.776;9.162;2022-10-31T07:43:05;16.23;;;6.67;;
291;SDS011;23311;48.776;9.162;2022-10-31T07:45:39;13.60;;;5.80;;
291;SDS011;23311;48.776;9.162;2022-10-31T07:48:07;10.53;;;6.20;;
291;SDS011;23311;48.776;9.162;2022-10-31T07:50:35;10.13;;;6.17;;
291;SDS011;23311;48.776;9.162;2022-10-31T07:53:03;10.60;;;6.17;;
291;SDS011;23311;48.776;9.162;2022-10-31T07:55:34;8.90;;;6.33;;
291;SDS011;23311;48.776;9.162;2022-10-31T07:58:03;8.33;;;6.10;;
291;SDS011;23311;48.776;9.162;2022-10-31T08:00:33;6.77;;;5.33;;
291;SDS011;23311;48.776;9.162;2022-10-31T08:03:03;9.77;;;6.60;;
291;SDS011;23311;48.776;9.162;2022-10-31T08:05:32;8.10;;;5.93;;
291;SDS011;23311;48.776;9.162;2022-10-31T08:08:01;7.23;;;5.70;;
291;SDS011;23311;48.776;9.162;2022-10-31T08:10:29;9.90;;;6.70;;
291;SDS011;23311;48.776;9.162;2022-10-31T08:12:59;8.03;;;6.67;;
291;SDS011;23311;48.776;9.162;2022-10-31T08:15:28;7.07;;;6.00;;
291;SDS011;23311;48.776;9.162;2022-10-31T08:17:57;8.50;;;6.30;;
291;SDS011;23311;48.776;9.162;2022-10-31T08:20:25;10.73;;;6.57;;
291;SDS011;23311;48.776;9.162;2022-10-31T08:22:54;8.40;;;5.80;;
291;SDS011;23311;48.776;9.162;2022-10-31T08:25:23;10.43;;;6.43;;
291;SDS011;23311;48.776;9.162;2022-10-31T08:27:54;8.10;;;6.70;;
291;SDS011;23311;48.776;9.162;2022-10-31T08:30:26;8.37;;;7.00;;
291;SDS011;23311;48.776;9.162;2022-10-31T08:32:58;10.43;;;6.37;;
291;SDS011;23311;48.776;9.162;2022-10-31T08:35:28;8.70;;;6.60;;
291;SDS011;23311;48.776;9.162;2022-10-31T08:37:56;11.13;;;6.00;;
291;SDS011;23311;48.776;9.162;2022-10-31T08:40:25;10.00;;;5.83;;
291;SDS011;23311;48.776;9.162;2022-10-31T08:43:00;7.50;;;6.03;;
291;SDS011;23311;48.776;9.162;2022-10-31T08:45:33;9.00;;;6.70;;
291;SDS011;23311;48.776;9.162;2022-10-31T08:48:02;12.83;;;6.60;;
291;SDS011;23311;48.776;9.162;2022-10-31T08:50:33;10.83;;;6.07;;
291;SDS011;23311;48.776;9.162;2022-10-31T08:53:03;11.27;;;7.10;;
291;SDS011;23311;48.776;9.162;2022-10-31T08:55:32;9.17;;;6.20;;
291;SDS011;23311;48.776;9.162;2022-10-31T08:58:02;8.47;;;6.57;;
291;SDS011;23311;48.776;9.162;2022-10-31T09:00:33;6.77;;;6.40;;
291;SDS011;23311;48.776;9.162;2022-10-31T09:03:02;11.63;;;6.03;;
291;SDS011;23311;48.776;9.162;2022-10-31T09:05:32;9.87;;;6.90;;
291;SDS011;23311;48.776;9.162;2022-10-31T09:08:01;8.13;;;6.10;;
291;SDS011;23311;48.776;9.162;2022-10-31T09:10:31;11.50;;;7.30;;
291;SDS011;23311;48.776;9.162;2022-10-31T09:13:02;14.77;;;7.07;;
291;SDS011;23311;48.776;9.162;2022-10-31T09:15:34;8.77;;;6.27;;
291;SDS011;23311;48.776;9.162;2022-10-31T09:18:04;7.50;;;7.07;;
291;SDS011;23311;48.776;9.162;2022-10-31T09:20:33;8.27;;;6.63;;
291;SDS011;23311;48.776;9.162;2022-10-31T09:23:04;7.50;;;5.67;;
291;SDS011;23311;48.776;9.162;2022-10-31T09:25:34;7.20;;;6.83;;
291;SDS011;23311;48.776;9.162;2022-10-31T09:28:03;10.20;;;6.53;;
291;SDS011;23311;48.776;9.162;2022-10-31T09:30:34;10.60;;;7.13;;
291;SDS011;23311;48.776;9.162;2022-10-31T09:33:03;8.30;;;6.67;;
291;SDS011;23311;48.776;9.162;2022-10-31T09:35:32;10.13;;;7.07;;
291;SDS011;23311;48.776;9.162;2022-10-31T09:38:01;8.13;;;6.50;;
291;SDS011;23311;48.776;9.162;2022-10-31T09:40:32;7.87;;;6.13;;
291;SDS011;23311;48.776;9.162;2022-10-31T09:43:03;11.50;;;7.23;;
291;SDS011;23311;48.776;9.162;2022-10-31T09:45:43;10.00;;;6.73;;
291;SDS011;23311;48.776;9.162;2022-10-31T09:51:23;7.57;;;7.17;;
291;SDS011;23311;48.776;9.162;2022-10-31T09:53:57;9.37;;;6.10;;
291;SDS011;23311;48.776;9.162;2022-10-31T09:56:30;8.13;;;6.67;;
291;SDS011;23311;48.776;9.162;2022-10-31T09:58:59;7.40;;;6.43;;
291;SDS011;23311;48.776;9.162;2022-10-31T10:01:32;11.10;;;6.40;;
291;SDS011;23311;48.776;9.162;2022-10-31T10:04:12;7.60;;;6.00;;
291;SDS011;23311;48.776;9.162;2022-10-31T10:06:57;9.53;;;6.90;;
291;SDS011;23311;48.776;9.162;2022-10-31T10:09:27;8.57;;;6.37;;
291;SDS011;23311;48.776;9.162;2022-10-31T10:11:58;7.43;;;7.03;;
291;SDS011;23311;48.776;9.162;2022-10-31T10:14:40;8.23;;;6.77;;
291;SDS011;23311;48.776;9.162;2022-10-31T10:17:20;9.30;;;6.37;;
291;SDS011;23311;48.776;9.162;2022-10-31T10:19:57;8.53;;;6.87;;
291;SDS011;23311;48.776;9.162;2022-10-31T10:22:37;11.40;;;7.40;;
291;SDS011;23311;48.776;9.162;2022-10-31T10:25:14;9.27;;;6.50;;
291;SDS011;23311;48.776;9.162;2022-10-31T10:27:49;13.23;;;6.90;;
291;SDS011;23311;48.776;9.162;2022-10-31T10:30:29;7.47;;;5.40;;
291;SDS011;23311;48.776;9.162;2022-10-31T10:33:04;11.77;;;7.93;;
291;SDS011;23311;48.776;9.162;2022-10-31T10:35:38;8.07;;;6.23;;
291;SDS011;23311;48.776;9.162;2022-10-31T10:38:10;9.87;;;6.80;;
291;SDS011;23311;48.776;9.162;2022-10-31T10:40:43;10.50;;;6.70;;
291;SDS011;23311;48.776;9.162;2022-10-31T10:43:17;15.50;;;6.50;;
291;SDS011;23311;48.776;9.162;2022-10-31T10:46:05;9.03;;;7.17;;
291;SDS011;23311;48.776;9.162;2022-10-31T10:49:14;9.57;;;6.57;;
291;SDS011;23311;48.776;9.162;2022-10-31T10:51:45;11.20;;;6.60;;
291;SDS011;23311;48.776;9.162;2022-10-31T10:54:42;12.33;;;7.20;;
291;SDS011;23311;48.776;9.162;2022-10-31T10:57:22;9.87;;;5.87;;
291;SDS011;23311;48.776;9.162;2022-10-31T10:59:57;6.93;;;6.40;;
291;SDS011;23311;48.776;9.162;2022-10-31T11:02:30;8.40;;;5.80;;
291;SDS011;23311;48.776;9.162;2022-10-31T11:05:01;8.23;;;6.70;;
291;SDS011;23311;48.776;9.162;2022-10-31T11:07:39;9.90;;;5.93;;
291;SDS011;23311;48.776;9.162;2022-10-31T11:10:11;8.90;;;6.93;;
291;SDS011;23311;48.776;9.162;2022-10-31T11:12:41;10.50;;;7.93;;
291;SDS011;23311;48.776;9.162;2022-10-31T11:15:21;8.50;;;6.00;;
291;SDS011;23311;48.776;9.162;2022-10-31T11:17:52;6.67;;;6.10;;
291;SDS011;23311;48.776;9.162;2022-10-31T11:20:26;10.43;;;6.20;;
291;SDS011;23311;48.776;9.162;2022-10-31T11:23:02;8.93;;;6.60;;
291;SDS011;23311;48.776;9.162;2022-10-31T11:25:54;8.10;;;6.13;;
291;SDS011;23311;48.776;9.162;2022-10-31T11:28:24;11.30;;;6.10;;
291;SDS011;23311;48.776;9.162;2022-10-31T11:30:53;8.70;;;6.43;;
291;SDS011;23311;48.776;9.162;2022-10-31T11:33:25;8.03;;;6.23;;
291;SDS011;23311;48.776;9.162;2022-10-31T11:35:56;8.80;;;5.97;;
291;SDS011;23311;48.776;9.162;2022-10-31T11:38:26;9.60;;;6.07;;
291;SDS011;23311;48.776;9.162;2022-10-31T11:41:08;10.00;;;6.10;;
291;SDS011;23311;48.776;9.162;2022-10-31T11:43:39;7.77;;;6.50;;
291;SDS011;23311;48.776;9.162;2022-10-31T11:46:17;7.23;;;6.20;;
291;SDS011;23311;48.776;9.162;2022-10-31T11:48:48;12.67;;;6.70;;
291;SDS011;23311;48.776;9.162;2022-10-31T11:51:22;8.60;;;6.70;;
291;SDS011;23311;48.776;9.162;2022-10-31T11:53:55;9.20;;;7.20;;
291;SDS011;23311;48.776;9.162;2022-10-31T11:56:37;9.77;;;6.00;;
291;SDS011;23311;48.776;9.162;2022-10-31T11:59:14;7.70;;;6.33;;
291;SDS011;23311;48.776;9.162;2022-10-31T12:01:46;6.80;;;5.80;;
291;SDS011;23311;48.776;9.162;2022-10-31T12:04:15;7.50;;;6.40;;
291;SDS011;23311;48.776;9.162;2022-10-31T12:06:45;13.53;;;6.90;;
291;SDS011;23311;48.776;9.162;2022-10-31T12:09:20;9.77;;;5.57;;
291;SDS011;23311;48.776;9.162;2022-10-31T12:11:53;6.67;;;5.50;;
291;SDS011;23311;48.776;9.162;2022-10-31T12:14:35;9.00;;;5.87;;
291;SDS011;23311;48.776;9.162;2022-10-31T12:17:08;10.13;;;6.60;;
291;SDS011;23311;48.776;9.162;2022-10-31T12:19:42;11.57;;;6.70;;
291;SDS011;23311;48.776;9.162;2022-10-31T12:22:23;9.10;;;7.17;;
291;SDS011;23311;48.776;9.162;2022-10-31T12:25:07;9.00;;;6.83;;
291;SDS011;23311;48.776;9.162;2022-10-31T12:27:52;9.03;;;7.20;;
291;SDS011;23311;48.776;9.162;2022-10-31T12:30:28;8.10;;;6.33;;
291;SDS011;23311;48.776;9.162;2022-10-31T12:33:13;7.77;;;6.23;;
291;SDS011;23311;48.776;9.162;2022-10-31T12:35:51;9.90;;;7.53;;
291;SDS011;23311;48.776;9.162;2022-10-31T12:38:45;10.00;;;7.00;;
291;SDS011;23311;48.776;9.162;2022-10-31T12:41:29;10.27;;;6.60;;
291;SDS011;23311;48.776;9.162;2022-10-31T12:44:12;9.00;;;6.80;;
291;SDS011;23311;48.776;9.162;2022-10-31T12:46:59;8.83;;;7.50;;
291;SDS011;23311;48.776;9.162;2022-10-31T12:49:46;8.20;;;7.10;;
291;SDS011;23311;48.776;9.162;2022-10-31T12:52:29;9.73;;;7.50;;
291;SDS011;23311;48.776;9.162;2022-10-31T12:55:16;9.90;;;7.83;;
291;SDS011;23311;48.776;9.162;2022-10-31T12:57:54;14.10;;;6.90;;
291;SDS011;23311;48.776;9.162;2022-10-31T13:00:28;7.90;;;7.57;;
291;SDS011;23311;48.776;9.162;2022-10-31T13:03:02;8.97;;;7.40;;
291;SDS011;23311;48.776;9.162;2022-10-31T13:05:41;9.90;;;7.30;;
291;SDS011;23311;48.776;9.162;2022-10-31T13:08:12;11.30;;;8.40;;
291;SDS011;23311;48.776;9.162;2022-10-31T13:10:46;12.27;;;7.03;;
291;SDS011;23311;48.776;9.162;2022-10-31T13:13:19;15.53;;;8.17;;
291;SDS011;23311;48.776;9.162;2022-10-31T13:15:55;7.00;;;6.60;;
291;SDS011;23311;48.776;9.162;2022-10-31T13:18:27;12.17;;;8.03;;
291;SDS011;23311;48.776;9.162;2022-10-31T13:20:57;7.40;;;6.07;;
291;SDS011;23311;48.776;9.162;2022-10-31T13:23:29;12.20;;;6.80;;
291;SDS011;23311;48.776;9.162;2022-10-31T13:26:19;11.30;;;7.57;;
291;SDS011;23311;48.776;9.162;2022-10-31T13:28:52;13.90;;;8.63;;
291;SDS011;23311;48.776;9.162;2022-10-31T13:31:27;9.77;;;8.17;;
291;SDS011;23311;48.776;9.162;2022-10-31T13:33:56;11.73;;;8.20;;
291;SDS011;23311;48.776;9.162;2022-10-31T13:36:29;8.20;;;7.10;;
291;SDS011;23311;48.776;9.162;2022-10-31T13:39:03;10.53;;;7.37;;
291;SDS011;23311;48.776;9.162;2022-10-31T13:41:48;11.17;;;8.40;;
291;SDS011;23311;48.776;9.162;2022-10-31T13:44:22;12.03;;;7.83;;
291;SDS011;23311;48.776;9.162;2022-10-31T13:46:52;10.03;;;8.47;;
291;SDS011;23311;48.776;9.162;2022-10-31T13:49:25;9.83;;;7.27;;
291;SDS011;23311;48.776;9.162;2022-10-31T13:52:14;11.50;;;7.23;;
291;SDS011;23311;48.776;9.162;2022-10-31T13:54:43;10.53;;;8.03;;
291;SDS011;23311;48.776;9.162;2022-10-31T13:57:16;9.47;;;7.80;;
291;SDS011;23311;48.776;9.162;2022-10-31T13:59:49;10.37;;;8.10;;
291;SDS011;23311;48.776;9.162;2022-10-31T14:02:23;11.30;;;7.27;;
291;SDS011;23311;48.776;9.162;2022-10-31T14:04:55;10.03;;;8.03;;
291;SDS011;23311;48.776;9.162;2022-10-31T14:07:26;15.93;;;7.57;;
291;SDS011;23311;48.776;9.162;2022-10-31T14:09:56;14.50;;;7.47;;
291;SDS011;23311;48.776;9.162;2022-10-31T14:12:29;11.90;;;7.23;;
291;SDS011;23311;48.776;9.162;2022-10-31T14:15:02;8.30;;;6.50;;
291;SDS011;23311;48.776;9.162;2022-10-31T14:17:39;10.90;;;6.77;;
291;SDS011;23311;48.776;9.162;2022-10-31T14:23:10;7.93;;;6.87;;
291;SDS011;23311;48.776;9.162;2022-10-31T14:26:05;9.47;;;7.73;;
291;SDS011;23311;48.776;9.162;2022-10-31T14:28:43;12.80;;;7.60;;
291;SDS011;23311;48.776;9.162;2022-10-31T14:31:26;8.07;;;7.47;;
291;SDS011;23311;48.776;9.162;2022-10-31T14:34:01;9.70;;;7.70;;
291;SDS011;23311;48.776;9.162;2022-10-31T14:36:46;7.57;;;6.87;;
291;SDS011;23311;48.776;9.162;2022-10-31T14:39:24;10.40;;;7.20;;
291;SDS011;23311;48.776;9.162;2022-10-31T14:42:00;11.03;;;8.23;;
291;SDS011;23311;48.776;9.162;2022-10-31T14:47:42;13.90;;;8.30;;
291;SDS011;23311;48.776;9.162;2022-10-31T14:50:21;10.93;;;7.03;;
291;SDS011;23311;48.776;9.162;2022-10-31T14:52:57;12.30;;;7.53;;
291;SDS011;23311;48.776;9.162;2022-10-31T14:55:30;12.30;;;8.23;;
291;SDS011;23311;48.776;9.162;2022-10-31T14:57:59;9.87;;;8.00;;
291;SDS011;23311;48.776;9.162;2022-10-31T15:00:31;11.17;;;7.50;;
291;SDS011;23311;48.776;9.162;2022-10-31T15:03:04;9.73;;;7.27;;
291;SDS011;23311;48.776;9.162;2022-10-31T15:05:41;11.57;;;8.93;;
291;SDS011;23311;48.776;9.162;2022-10-31T15:08:13;11.20;;;8.30;;
291;SDS011;23311;48.776;9.162;2022-10-31T15:10:54;9.07;;;7.23;;
291;SDS011;23311;48.776;9.162;2022-10-31T15:13:22;10.43;;;9.00;;
291;SDS011;23311;48.776;9.162;2022-10-31T15:15:52;8.57;;;8.10;;
291;SDS011;23311;48.776;9.162;2022-10-31T15:18:23;10.40;;;7.57;;
291;SDS011;23311;48.776;9.162;2022-10-31T15:20:53;13.10;;;8.03;;
291;SDS011;23311;48.776;9.162;2022-10-31T15:23:23;11.70;;;8.30;;
291;SDS011;23311;48.776;9.162;2022-10-31T15:25:57;13.23;;;8.50;;
291;SDS011;23311;48.776;9.162;2022-10-31T15:28:27;11.17;;;8.30;;
291;SDS011;23311;48.776;9.162;2022-10-31T15:30:57;12.70;;;8.50;;
291;SDS011;23311;48.776;9.162;2022-10-31T15:33:27;13.10;;;7.53;;
291;SDS011;23311;48.776;9.162;2022-10-31T15:36:03;12.67;;;9.30;;
291;SDS011;23311;48.776;9.162;2022-10-31T15:38:32;18.07;;;9.37;;
291;SDS011;23311;48.776;9.162;2022-10-31T15:41:01;10.70;;;8.53;;
291;SDS011;23311;48.776;9.162;2022-10-31T15:43:32;11.57;;;9.03;;
291;SDS011;23311;48.776;9.162;2022-10-31T15:46:07;16.03;;;9.30;;
291;SDS011;23311;48.776;9.162;2022-10-31T15:48:36;16.10;;;9.30;;
291;SDS011;23311;48.776;9.162;2022-10-31T15:51:06;14.10;;;11.37;;
291;SDS011;23311;48.776;9.162;2022-10-31T15:53:35;15.13;;;8.90;;